createdAt,value
2018-06-01T00:01:28.885Z,24.40
2018-06-01T00:04:02.011Z,24.10
2018-06-01T00:06:35.235Z,23.90
2018-06-01T00:09:09.323Z,23.00
2018-06-01T00:11:42.477Z,23.00
2018-06-01T00:14:15.737Z,22.60
2018-06-01T00:16:49.678Z,22.00
2018-06-01T00:19:22.917Z,22.00
2018-06-01T00:21:55.933Z,22.00
2018-06-01T00:24:29.855Z,21.70
2018-06-01T00:27:03.067Z,21.70
2018-06-01T00:29:36.069Z,21.80
2018-06-01T00:32:10.076Z,21.80
2018-06-01T00:34:43.268Z,21.70
2018-06-01T00:37:16.507Z,21.70
2018-06-01T00:39:49.752Z,21.40
2018-06-01T00:42:22.887Z,21.40
2018-06-01T00:44:56.082Z,21.20
2018-06-01T00:47:29.180Z,21.00
2018-06-01T00:50:02.354Z,21.20
2018-06-01T00:52:35.555Z,21.10
2018-06-01T00:55:14.595Z,21.10
2018-06-01T00:57:47.585Z,21.20
2018-06-01T01:00:20.768Z,20.90
2018-06-01T01:02:53.970Z,20.80
2018-06-01T01:05:27.113Z,20.50
2018-06-01T01:08:00.284Z,20.40
2018-06-01T01:10:33.479Z,20.30
2018-06-01T01:13:06.571Z,19.80
2018-06-01T01:15:39.828Z,19.60
2018-06-01T01:18:12.871Z,19.50
2018-06-01T01:20:45.964Z,19.50
2018-06-01T01:23:19.147Z,19.50
2018-06-01T01:25:53.123Z,19.50
2018-06-01T01:28:26.312Z,19.50
2018-06-01T01:30:59.584Z,19.50
2018-06-01T01:33:32.851Z,19.50
2018-06-01T01:36:06.141Z,19.40
2018-06-01T01:38:40.107Z,19.90
2018-06-01T01:41:13.260Z,19.90
2018-06-01T01:43:46.487Z,20.10
2018-06-01T01:46:19.657Z,19.80
2018-06-01T01:48:52.803Z,19.60
2018-06-01T01:51:25.889Z,19.60
2018-06-01T01:53:59.136Z,19.60
2018-06-01T01:56:32.228Z,19.90
2018-06-01T01:59:05.432Z,20.00
2018-06-01T02:01:38.626Z,20.00
2018-06-01T02:04:11.822Z,20.00
2018-06-01T02:06:45.011Z,19.70
2018-06-01T02:09:18.348Z,19.70
2018-06-01T02:11:51.544Z,19.80
2018-06-01T02:14:25.534Z,20.00
2018-06-01T02:16:58.758Z,19.90
2018-06-01T02:19:31.893Z,20.20
2018-06-01T02:22:05.093Z,19.90
2018-06-01T02:24:38.096Z,20.00
2018-06-01T02:27:11.347Z,19.90
2018-06-01T02:29:44.486Z,20.10
2018-06-01T02:32:17.751Z,20.30
2018-06-01T02:34:50.968Z,20.30
2018-06-01T02:37:24.108Z,20.30
2018-06-01T02:39:57.320Z,20.30
2018-06-01T02:42:30.572Z,20.30
2018-06-01T02:45:03.632Z,20.30
2018-06-01T02:47:36.775Z,20.30
2018-06-01T02:53:14.297Z,20.20
2018-06-01T02:55:47.354Z,20.10
2018-06-01T02:58:20.557Z,20.20
2018-06-01T03:00:53.484Z,20.30
2018-06-01T03:03:26.455Z,20.30
2018-06-01T03:05:59.392Z,20.20
2018-06-01T03:08:32.436Z,20.10
2018-06-01T03:11:05.333Z,20.20
2018-06-01T03:13:38.320Z,20.00
2018-06-01T03:16:11.283Z,20.00
2018-06-01T03:18:44.375Z,20.10
2018-06-01T03:21:17.267Z,19.90
2018-06-01T03:23:50.952Z,19.30
2018-06-01T03:26:23.950Z,19.30
2018-06-01T03:28:57.635Z,19.70
2018-06-01T03:31:30.697Z,19.70
2018-06-01T03:34:03.837Z,19.80
2018-06-01T03:36:37.012Z,19.80
2018-06-01T03:39:10.965Z,19.40
2018-06-01T03:41:44.769Z,19.60
2018-06-01T03:44:17.961Z,19.60
2018-06-01T03:46:51.147Z,19.60
2018-06-01T03:49:24.235Z,19.80
2018-06-01T03:51:57.364Z,19.60
2018-06-01T03:54:30.351Z,19.60
2018-06-01T03:57:03.542Z,19.40
2018-06-01T03:59:36.531Z,19.50
2018-06-01T04:02:10.523Z,19.40
2018-06-01T04:04:43.763Z,19.40
2018-06-01T04:07:16.956Z,19.40
2018-06-01T04:09:50.153Z,19.40
2018-06-01T04:12:23.291Z,19.60
2018-06-01T04:14:56.540Z,19.70
2018-06-01T04:17:29.795Z,19.40
2018-06-01T04:20:02.762Z,19.60
2018-06-01T04:22:35.975Z,19.70
2018-06-01T04:25:09.128Z,19.70
2018-06-01T04:27:42.375Z,19.40
2018-06-01T04:30:15.540Z,19.50
2018-06-01T04:32:48.676Z,19.60
2018-06-01T04:35:21.856Z,19.30
2018-06-01T04:37:55.051Z,19.40
2018-06-01T04:40:28.273Z,19.30
2018-06-01T04:43:01.414Z,19.40
2018-06-01T04:45:34.621Z,19.40
2018-06-01T04:48:07.682Z,19.40
2018-06-01T04:50:40.837Z,19.40
2018-06-01T04:53:14.698Z,19.40
2018-06-01T04:55:47.866Z,19.40
2018-06-01T04:58:21.024Z,19.60
2018-06-01T05:00:54.185Z,19.50
2018-06-01T05:03:27.328Z,19.50
2018-06-01T05:06:01.225Z,19.40
2018-06-01T05:08:35.235Z,19.40
2018-06-01T05:11:08.428Z,19.40
2018-06-01T05:13:45.216Z,19.40
2018-06-01T05:16:19.008Z,19.30
2018-06-01T05:18:52.227Z,19.20
2018-06-01T05:21:25.460Z,19.30
2018-06-01T05:23:58.726Z,19.40
2018-06-01T05:26:31.902Z,19.50
2018-06-01T05:29:04.992Z,19.20
2018-06-01T05:31:39.004Z,19.50
2018-06-01T05:34:12.267Z,19.50
2018-06-01T05:36:45.486Z,19.70
2018-06-01T05:39:18.583Z,19.60
2018-06-01T05:41:52.270Z,19.60
2018-06-01T05:44:26.183Z,19.80
2018-06-01T05:47:00.211Z,19.80
2018-06-01T05:49:33.397Z,19.80
2018-06-01T05:52:06.601Z,19.80
2018-06-01T05:54:39.779Z,19.80
2018-06-01T05:57:12.985Z,19.80
2018-06-01T05:59:46.189Z,19.80
2018-06-01T06:02:19.201Z,19.60
2018-06-01T06:04:52.287Z,19.90
2018-06-01T06:07:25.509Z,20.10
2018-06-01T06:09:58.685Z,20.30
2018-06-01T06:12:31.886Z,20.60
2018-06-01T06:15:05.136Z,20.70
2018-06-01T06:17:38.353Z,20.70
2018-06-01T06:20:11.504Z,20.90
2018-06-01T06:22:44.709Z,20.70
2018-06-01T06:25:17.979Z,20.50
2018-06-01T06:27:51.182Z,20.20
2018-06-01T06:30:24.309Z,20.30
2018-06-01T06:32:57.447Z,20.20
2018-06-01T06:35:30.664Z,20.30
2018-06-01T06:38:04.593Z,20.50
2018-06-01T06:40:37.646Z,20.50
2018-06-01T06:43:10.872Z,20.10
2018-06-01T06:45:44.834Z,20.30
2018-06-01T06:48:17.911Z,20.30
2018-06-01T06:50:51.875Z,20.30
2018-06-01T06:53:25.849Z,20.30
2018-06-01T06:55:59.019Z,20.30
2018-06-01T06:58:32.259Z,20.20
2018-06-01T07:01:05.987Z,20.40
2018-06-01T07:03:39.104Z,20.40
2018-06-01T07:06:13.031Z,20.40
2018-06-01T07:08:47.040Z,20.30
2018-06-01T07:11:20.212Z,20.30
2018-06-01T07:13:53.629Z,20.40
2018-06-01T07:16:27.121Z,20.30
2018-06-01T07:19:00.392Z,20.40
2018-06-01T07:21:33.512Z,20.50
2018-06-01T07:24:06.604Z,20.60
2018-06-01T07:26:40.612Z,20.70
2018-06-01T07:29:13.765Z,20.70
2018-06-01T07:31:47.032Z,20.80
2018-06-01T07:34:20.152Z,20.70
2018-06-01T07:36:54.083Z,20.50
2018-06-01T07:39:27.351Z,20.50
2018-06-01T07:42:01.276Z,20.50
2018-06-01T07:44:34.418Z,20.50
2018-06-01T07:47:07.527Z,20.50
2018-06-01T07:49:40.670Z,20.70
2018-06-01T07:52:14.647Z,20.70
2018-06-01T07:54:47.872Z,20.70
2018-06-01T07:57:21.903Z,20.70
2018-06-01T07:59:55.134Z,20.60
2018-06-01T08:02:28.270Z,20.80
2018-06-01T08:05:01.483Z,21.10
2018-06-01T08:07:35.386Z,21.00
2018-06-01T08:10:08.540Z,20.90
2018-06-01T08:12:41.751Z,21.20
2018-06-01T08:15:14.924Z,21.10
2018-06-01T08:17:48.203Z,21.40
2018-06-01T08:20:21.369Z,21.40
2018-06-01T08:22:54.585Z,21.60
2018-06-01T08:25:27.776Z,21.40
2018-06-01T08:28:00.904Z,21.50
2018-06-01T08:30:34.089Z,21.10
2018-06-01T08:33:07.353Z,21.50
2018-06-01T08:35:40.427Z,22.10
2018-06-01T08:38:13.687Z,22.40
2018-06-01T08:40:46.859Z,22.50
2018-06-01T08:43:19.998Z,22.50
2018-06-01T08:45:53.211Z,21.90
2018-06-01T08:48:26.406Z,22.00
2018-06-01T08:50:59.576Z,22.20
2018-06-01T08:53:32.779Z,22.80
2018-06-01T08:56:05.950Z,23.20
2018-06-01T08:58:39.188Z,23.30
2018-06-01T09:01:12.450Z,23.40
2018-06-01T09:03:46.109Z,23.70
2018-06-01T09:06:19.220Z,23.90
2018-06-01T09:08:52.321Z,23.70
2018-06-01T09:11:25.455Z,23.90
2018-06-01T09:13:58.589Z,24.10
2018-06-01T09:16:31.716Z,24.00
2018-06-01T09:19:05.648Z,23.80
2018-06-01T09:21:38.892Z,23.80
2018-06-01T09:24:12.879Z,22.70
2018-06-01T09:26:45.892Z,22.70
2018-06-01T09:29:19.079Z,23.00
2018-06-01T09:31:52.137Z,22.70
2018-06-01T09:34:25.400Z,22.80
2018-06-01T09:36:58.393Z,23.20
2018-06-01T09:39:32.327Z,23.10
2018-06-01T09:42:06.356Z,22.60
2018-06-01T09:44:39.531Z,22.60
2018-06-01T09:47:12.747Z,22.40
2018-06-01T09:49:45.842Z,23.10
2018-06-01T09:52:18.924Z,23.50
2018-06-01T09:54:52.843Z,23.70
2018-06-01T09:57:26.695Z,23.60
2018-06-01T09:59:59.936Z,23.60
2018-06-01T10:02:33.905Z,23.10
2018-06-01T10:05:07.072Z,23.10
2018-06-01T10:07:40.319Z,22.90
2018-06-01T10:12:54.188Z,23.10
2018-06-01T10:15:27.457Z,23.00
2018-06-01T10:18:00.566Z,23.60
2018-06-01T10:20:34.662Z,23.90
2018-06-01T10:23:08.568Z,24.70
2018-06-01T10:25:41.750Z,24.60
2018-06-01T10:28:14.994Z,24.30
2018-06-01T10:30:48.964Z,24.30
2018-06-01T10:33:22.119Z,24.30
2018-06-01T10:35:55.261Z,24.50
2018-06-01T10:38:29.257Z,24.50
2018-06-01T10:41:03.300Z,24.80
2018-06-01T10:43:36.480Z,24.70
2018-06-01T10:46:10.501Z,24.80
2018-06-01T10:48:43.682Z,24.70
2018-06-01T10:51:16.819Z,24.70
2018-06-01T10:53:49.929Z,24.60
2018-06-01T10:56:23.116Z,24.20
2018-06-01T10:58:57.064Z,23.90
2018-06-01T11:01:30.196Z,23.90
2018-06-01T11:04:04.145Z,23.70
2018-06-01T11:06:37.439Z,23.70
2018-06-01T11:09:10.567Z,24.00
2018-06-01T11:11:43.759Z,24.20
2018-06-01T11:14:16.825Z,24.50
2018-06-01T11:16:50.043Z,24.50
2018-06-01T11:19:23.238Z,24.60
2018-06-01T11:21:56.426Z,24.60
2018-06-01T11:24:29.629Z,24.50
2018-06-01T11:27:02.859Z,24.60
2018-06-01T11:29:36.017Z,24.50
2018-06-01T11:32:09.219Z,24.30
2018-06-01T11:34:42.376Z,24.20
2018-06-01T11:37:15.434Z,24.20
2018-06-01T11:39:48.614Z,24.20
2018-06-01T11:42:21.843Z,24.50
2018-06-01T11:44:55.080Z,24.70
2018-06-01T11:47:28.250Z,24.80
2018-06-01T11:50:01.376Z,25.20
2018-06-01T11:52:34.564Z,25.00
2018-06-01T11:55:08.272Z,24.60
2018-06-01T11:57:41.415Z,24.60
2018-06-01T12:00:15.401Z,24.60
2018-06-01T12:02:48.621Z,24.60
2018-06-01T12:05:22.605Z,25.10
2018-06-01T12:07:55.826Z,25.10
2018-06-01T12:10:29.026Z,25.00
2018-06-01T12:13:02.098Z,25.20
2018-06-01T12:15:35.283Z,25.00
2018-06-01T12:18:08.483Z,24.90
2018-06-01T12:20:42.219Z,25.00
2018-06-01T12:23:15.296Z,24.90
2018-06-01T12:25:49.255Z,24.90
2018-06-01T12:28:22.494Z,24.90
2018-06-01T12:30:55.578Z,25.30
2018-06-01T12:33:28.715Z,25.60
2018-06-01T12:36:01.939Z,25.50
2018-06-01T12:38:35.128Z,25.00
2018-06-01T12:41:08.351Z,25.30
2018-06-01T12:43:41.587Z,25.30
2018-06-01T12:46:14.740Z,25.40
2018-06-01T12:48:47.863Z,24.70
2018-06-01T12:51:20.842Z,24.70
2018-06-01T12:53:54.119Z,25.00
2018-06-01T12:56:27.322Z,24.90
2018-06-01T12:59:00.500Z,24.90
2018-06-01T13:01:33.708Z,25.20
2018-06-01T13:04:06.823Z,25.20
2018-06-01T13:06:40.063Z,25.20
2018-06-01T13:09:13.180Z,25.30
2018-06-01T13:11:46.473Z,25.10
2018-06-01T13:14:19.638Z,25.10
2018-06-01T13:16:52.797Z,25.50
2018-06-01T13:19:26.047Z,25.40
2018-06-01T13:21:59.318Z,25.70
2018-06-01T13:24:32.488Z,26.80
2018-06-01T13:27:05.711Z,26.60
2018-06-01T13:29:38.988Z,26.40
2018-06-01T13:32:12.202Z,26.10
2018-06-01T13:34:46.155Z,25.60
2018-06-01T13:37:19.342Z,25.50
2018-06-01T13:39:52.537Z,25.60
2018-06-01T13:42:25.755Z,25.80
2018-06-01T13:44:58.659Z,25.50
2018-06-01T13:47:31.827Z,25.80
2018-06-01T13:50:05.018Z,26.20
2018-06-01T13:52:38.142Z,26.50
2018-06-01T13:55:11.254Z,26.30
2018-06-01T13:57:44.416Z,26.20
2018-06-01T14:00:18.375Z,25.80
2018-06-01T14:02:52.379Z,25.90
2018-06-01T14:05:26.398Z,25.90
2018-06-01T14:07:59.612Z,25.90
2018-06-01T14:10:32.975Z,25.80
2018-06-01T14:13:05.958Z,26.60
2018-06-01T14:15:39.074Z,26.60
2018-06-01T14:18:12.193Z,26.90
2018-06-01T14:20:46.203Z,26.60
2018-06-01T14:23:19.334Z,26.60
2018-06-01T14:25:52.403Z,26.20
2018-06-01T14:28:26.134Z,26.00
2018-06-01T14:30:59.163Z,26.00
2018-06-01T14:33:32.923Z,25.90
2018-06-01T14:36:06.847Z,26.30
2018-06-01T14:38:40.043Z,26.20
2018-06-01T14:41:13.268Z,26.10
2018-06-01T14:43:46.355Z,26.50
2018-06-01T14:46:19.562Z,27.20
2018-06-01T14:48:52.815Z,26.70
2018-06-01T14:51:26.020Z,26.40
2018-06-01T14:53:59.271Z,26.00
2018-06-01T14:56:32.423Z,25.90
2018-06-01T14:59:05.607Z,26.10
2018-06-01T15:01:38.794Z,25.90
2018-06-01T15:04:11.987Z,25.60
2018-06-01T15:06:45.133Z,25.00
2018-06-01T15:09:18.284Z,25.00
2018-06-01T15:11:51.391Z,25.10
2018-06-01T15:14:24.528Z,24.70
2018-06-01T15:16:57.715Z,24.30
2018-06-01T15:19:56.571Z,24.20
2018-06-01T15:22:31.230Z,24.20
2018-06-01T15:25:05.342Z,24.10
2018-06-01T15:27:39.396Z,23.90
2018-06-01T15:30:14.079Z,24.90
2018-06-01T15:32:47.989Z,25.00
2018-06-01T15:35:22.801Z,26.90
2018-06-01T15:37:56.881Z,26.80
2018-06-01T15:40:30.866Z,26.80
2018-06-01T15:43:04.869Z,28.30
2018-06-01T15:45:38.901Z,30.20
2018-06-01T15:48:12.878Z,31.30
2018-06-01T15:50:46.893Z,30.40
2018-06-01T15:53:20.965Z,27.60
2018-06-01T15:55:55.815Z,26.70
2018-06-01T15:58:30.433Z,26.70
2018-06-01T16:01:05.169Z,29.20
2018-06-01T16:03:39.070Z,29.10
2018-06-01T16:06:13.067Z,30.70
2018-06-01T16:08:47.211Z,30.50
2018-06-01T16:11:21.217Z,31.50
2018-06-01T16:13:55.270Z,31.40
2018-06-01T16:16:29.357Z,31.80
2018-06-01T16:19:03.344Z,32.10
2018-06-01T16:21:37.381Z,30.80
2018-06-01T16:24:11.396Z,30.60
2018-06-01T16:26:45.410Z,29.90
2018-06-01T16:29:19.369Z,30.50
2018-06-01T16:31:53.416Z,30.70
2018-06-01T16:34:27.504Z,30.50
2018-06-01T16:37:01.541Z,31.40
2018-06-01T16:39:35.536Z,31.60
2018-06-01T16:42:09.552Z,31.70
2018-06-01T16:44:43.640Z,31.00
2018-06-01T16:47:17.761Z,30.50
2018-06-01T16:49:51.869Z,30.40
2018-06-01T16:52:25.962Z,30.10
2018-06-01T16:54:59.908Z,29.90
2018-06-01T16:57:33.918Z,29.70
2018-06-01T17:00:07.939Z,30.20
2018-06-01T17:02:42.771Z,30.60
2018-06-01T17:05:16.690Z,30.60
2018-06-01T17:07:50.657Z,30.40
2018-06-01T17:10:24.677Z,30.40
2018-06-01T17:12:58.714Z,30.00
2018-06-01T17:15:32.630Z,30.40
2018-06-01T17:18:06.718Z,28.70
2018-06-01T17:20:40.789Z,27.80
2018-06-01T17:23:14.844Z,27.20
2018-06-01T17:25:49.682Z,26.70
2018-06-01T17:28:23.630Z,26.70
2018-06-01T17:30:57.621Z,26.90
2018-06-01T17:33:31.640Z,26.50
2018-06-01T17:36:05.700Z,26.50
2018-06-01T17:38:39.722Z,26.20
2018-06-01T17:41:14.522Z,25.40
2018-06-01T17:43:48.392Z,25.40
2018-06-01T17:46:22.466Z,25.60
2018-06-01T17:48:56.485Z,25.70
2018-06-01T17:51:30.489Z,25.70
2018-06-01T17:54:04.561Z,25.40
2018-06-01T17:56:38.625Z,26.40
2018-06-01T17:59:13.461Z,27.50
2018-06-01T18:01:48.101Z,28.30
2018-06-01T18:04:22.824Z,28.10
2018-06-01T18:06:57.552Z,27.50
2018-06-01T18:09:31.558Z,27.50
2018-06-01T18:12:05.466Z,27.30
2018-06-01T18:14:40.296Z,27.40
2018-06-01T18:17:14.279Z,27.40
2018-06-01T18:19:48.289Z,27.30
2018-06-01T18:22:22.357Z,26.70
2018-06-01T18:24:57.057Z,27.00
2018-06-01T18:27:30.967Z,27.00
2018-06-01T18:30:04.817Z,26.60
2018-06-01T18:32:39.505Z,25.80
2018-06-01T18:35:13.415Z,25.80
2018-06-01T18:37:47.397Z,25.80
2018-06-01T18:40:21.458Z,25.50
2018-06-01T18:42:55.622Z,25.50
2018-06-01T18:45:29.731Z,25.30
2018-06-01T18:48:03.799Z,25.10
2018-06-01T18:50:37.826Z,25.00
2018-06-01T18:53:11.814Z,24.80
2018-06-01T18:55:46.676Z,24.70
2018-06-01T18:58:20.757Z,24.70
2018-06-01T19:00:55.310Z,24.50
2018-06-01T19:03:29.247Z,24.50
2018-06-01T19:06:03.298Z,24.40
2018-06-01T19:08:37.309Z,24.40
2018-06-01T19:11:11.518Z,24.40
2018-06-01T19:13:45.483Z,24.30
2018-06-01T19:16:19.443Z,24.10
2018-06-01T19:18:55.506Z,23.90
2018-06-01T19:21:29.552Z,23.90
2018-06-01T19:24:04.408Z,23.90
2018-06-01T19:26:38.490Z,23.90
2018-06-01T19:29:12.590Z,23.80
2018-06-01T19:31:46.639Z,23.70
2018-06-01T19:34:21.409Z,23.60
2018-06-01T19:36:55.493Z,23.60
2018-06-01T19:39:29.642Z,23.50
2018-06-01T19:42:03.744Z,23.60
2018-06-01T19:44:37.838Z,23.60
2018-06-01T19:47:12.012Z,23.60
2018-06-01T19:49:46.185Z,23.60
2018-06-01T19:52:20.156Z,23.20
2018-06-01T19:54:54.257Z,23.10
2018-06-01T19:57:28.298Z,22.90
2018-06-01T20:00:02.691Z,22.90
2018-06-01T20:02:37.405Z,23.00
2018-06-01T20:05:11.583Z,23.10
2018-06-01T20:07:45.561Z,22.90
2018-06-01T20:10:20.413Z,22.90
2018-06-01T20:12:54.660Z,22.90
2018-06-01T20:15:29.037Z,23.10
2018-06-01T20:18:04.130Z,23.10
2018-06-01T20:20:38.292Z,23.10
2018-06-01T20:23:13.288Z,23.00
2018-06-01T20:25:47.169Z,23.00
2018-06-01T20:28:21.805Z,22.90
2018-06-01T20:30:57.811Z,23.00
2018-06-01T20:33:31.809Z,23.00
2018-06-01T20:36:05.889Z,23.10
2018-06-01T20:38:40.241Z,23.00
2018-06-01T20:41:14.902Z,22.90
2018-06-01T20:43:49.688Z,22.80
2018-06-01T20:46:26.029Z,22.60
2018-06-01T20:49:00.262Z,22.60
2018-06-01T20:51:34.459Z,22.80
2018-06-01T20:54:08.510Z,22.80
2018-06-01T20:56:42.503Z,22.90
2018-06-01T20:59:16.583Z,22.90
2018-06-01T21:01:50.728Z,22.70
2018-06-01T21:04:24.806Z,22.80
2018-06-01T21:06:58.953Z,22.90
2018-06-01T21:09:32.819Z,22.80
2018-06-01T21:12:07.706Z,22.40
2018-06-01T21:14:42.016Z,22.40
2018-06-01T21:17:16.057Z,22.40
2018-06-01T21:19:50.390Z,22.30
2018-06-01T21:22:24.463Z,22.30
2018-06-01T21:24:58.449Z,22.20
2018-06-01T21:27:32.597Z,22.20
2018-06-01T21:30:06.659Z,22.20
2018-06-01T21:32:40.729Z,22.30
2018-06-01T21:35:14.823Z,22.30
2018-06-01T21:37:49.182Z,22.30
2018-06-01T21:40:24.159Z,22.30
2018-06-01T21:42:58.361Z,22.30
2018-06-01T21:45:32.371Z,22.20
2018-06-01T21:48:07.245Z,21.90
2018-06-01T21:50:41.206Z,21.90
2018-06-01T21:53:15.310Z,21.80
2018-06-01T21:55:49.257Z,21.80
2018-06-01T21:58:23.593Z,21.80
2018-06-01T22:00:57.570Z,21.80
2018-06-01T22:03:32.411Z,21.80
2018-06-01T22:06:06.550Z,21.80
2018-06-01T22:08:40.712Z,21.60
2018-06-01T22:11:14.847Z,21.50
2018-06-01T22:13:48.807Z,21.40
2018-06-01T22:16:22.713Z,21.30
2018-06-01T22:18:57.051Z,21.20
2018-06-01T22:21:32.075Z,21.10
2018-06-01T22:24:06.120Z,21.00
2018-06-01T22:26:40.162Z,21.20
2018-06-01T22:29:14.278Z,21.20
2018-06-01T22:31:48.609Z,21.10
2018-06-01T22:34:22.517Z,21.20
2018-06-01T22:36:56.880Z,21.00
2018-06-01T22:39:30.908Z,20.90
2018-06-01T22:42:05.210Z,20.80
2018-06-01T22:44:39.298Z,20.70
2018-06-01T22:47:13.488Z,20.80
2018-06-01T22:49:47.755Z,20.90
2018-06-01T22:52:21.878Z,20.80
2018-06-01T22:54:56.019Z,21.00
2018-06-01T22:57:30.123Z,20.70
2018-06-01T23:00:04.037Z,20.70
2018-06-01T23:02:38.083Z,20.70
2018-06-01T23:05:12.340Z,20.60
2018-06-01T23:07:46.560Z,20.60
2018-06-01T23:10:20.583Z,20.50
2018-06-01T23:12:55.448Z,20.40
2018-06-01T23:15:29.341Z,20.30
2018-06-01T23:18:03.471Z,20.40
2018-06-01T23:20:37.405Z,20.30
2018-06-01T23:23:11.483Z,20.20
2018-06-01T23:25:46.347Z,20.00
2018-06-01T23:28:20.703Z,20.00
2018-06-01T23:30:55.036Z,20.00
2018-06-01T23:33:29.127Z,20.10
2018-06-01T23:36:03.265Z,20.00
2018-06-01T23:38:38.071Z,19.90
2018-06-01T23:41:12.246Z,19.90
2018-06-01T23:43:47.122Z,19.80
2018-06-01T23:46:21.053Z,19.80
2018-06-01T23:48:55.163Z,19.70
2018-06-01T23:51:29.253Z,19.60
2018-06-01T23:54:03.412Z,19.60
2018-06-01T23:56:37.551Z,19.50
2018-06-01T23:59:11.547Z,19.60
